sensor_id;sensor_type;location;lat;lon;timestamp;P1;durP1;ratioP1;P2;durP2;ratioP2
22675;SDS011;12521;43.310;21.876;2023-05-24T00:03:13;9.0;;;8.0;;
22675;SDS011;12521;43.310;21.876;2023-05-24T00:07:49;9.0;;;8.0;;
22675;SDS011;12521;43.310;21.876;2023-05-24T00:12:25;11.0;;;9.0;;
22675;SDS011;12521;43.310;21.876;2023-05-24T00:17:02;11.0;;;9.0;;
22675;SDS011;12521;43.310;21.876;2023-05-24T00:21:39;13.0;;;10.0;;
22675;SDS011;12521;43.310;21.876;2023-05-24T00:26:15;13.0;;;10.0;;
22675;SDS011;12521;43.310;21.876;2023-05-24T00:30:51;11.0;;;9.0;;
22675;SDS011;12521;43.310;21.876;2023-05-24T00:35:27;11.0;;;9.0;;
22675;SDS011;12521;43.310;21.876;2023-05-24T00:40:04;9.0;;;8.0;;
22675;SDS011;12521;43.310;21.876;2023-05-24T00:44:43;9.0;;;8.0;;
22675;SDS011;12521;43.310;21.876;2023-05-24T00:49:19;9.0;;;8.0;;
22675;SDS011;12521;43.310;21.876;2023-05-24T00:53:58;10.0;;;8.0;;
22675;SDS011;12521;43.310;21.876;2023-05-24T00:58:35;10.0;;;8.0;;
22675;SDS011;12521;43.310;21.876;2023-05-24T01:03:11;10.0;;;7.0;;
22675;SDS011;12521;43.310;21.876;2023-05-24T01:07:58;10.0;;;7.0;;
22675;SDS011;12521;43.310;21.876;2023-05-24T01:12:55;10.0;;;8.0;;
22675;SDS011;12521;43.310;21.876;2023-05-24T01:17:53;10.0;;;8.0;;
22675;SDS011;12521;43.310;21.876;2023-05-24T01:23:12;10.0;;;9.0;;
22675;SDS011;12521;43.310;21.876;2023-05-24T01:28:07;10.0;;;9.0;;
22675;SDS011;12521;43.310;21.876;2023-05-24T01:32:46;9.0;;;8.0;;
22675;SDS011;12521;43.310;21.876;2023-05-24T01:37:23;9.0;;;8.0;;
22675;SDS011;12521;43.310;21.876;2023-05-24T01:42:10;8.0;;;6.0;;
22675;SDS011;12521;43.310;21.876;2023-05-24T01:47:06;8.0;;;6.0;;
22675;SDS011;12521;43.310;21.876;2023-05-24T01:52:10;8.0;;;6.0;;
22675;SDS011;12521;43.310;21.876;2023-05-24T01:56:58;8.0;;;6.0;;
22675;SDS011;12521;43.310;21.876;2023-05-24T02:01:45;8.0;;;6.0;;
22675;SDS011;12521;43.310;21.876;2023-05-24T02:06:23;8.0;;;6.0;;
22675;SDS011;12521;43.310;21.876;2023-05-24T02:11:00;8.0;;;6.0;;
22675;SDS011;12521;43.310;21.876;2023-05-24T02:15:36;8.0;;;6.0;;
22675;SDS011;12521;43.310;21.876;2023-05-24T02:20:13;8.0;;;6.0;;
22675;SDS011;12521;43.310;21.876;2023-05-24T02:24:50;8.0;;;6.0;;
22675;SDS011;12521;43.310;21.876;2023-05-24T02:29:26;8.0;;;6.0;;
22675;SDS011;12521;43.310;21.876;2023-05-24T02:34:02;8.0;;;6.0;;
22675;SDS011;12521;43.310;21.876;2023-05-24T02:38:39;8.0;;;6.0;;
22675;SDS011;12521;43.310;21.876;2023-05-24T02:43:15;8.0;;;7.0;;
22675;SDS011;12521;43.310;21.876;2023-05-24T02:47:51;8.0;;;7.0;;
22675;SDS011;12521;43.310;21.876;2023-05-24T02:52:27;8.0;;;7.0;;
22675;SDS011;12521;43.310;21.876;2023-05-24T02:57:04;8.0;;;7.0;;
22675;SDS011;12521;43.310;21.876;2023-05-24T03:01:41;7.0;;;7.0;;
22675;SDS011;12521;43.310;21.876;2023-05-24T03:06:17;7.0;;;7.0;;
22675;SDS011;12521;43.310;21.876;2023-05-24T03:10:53;10.0;;;8.0;;
22675;SDS011;12521;43.310;21.876;2023-05-24T03:15:29;10.0;;;8.0;;
22675;SDS011;12521;43.310;21.876;2023-05-24T03:20:06;12.0;;;8.0;;
22675;SDS011;12521;43.310;21.876;2023-05-24T03:24:44;12.0;;;8.0;;
22675;SDS011;12521;43.310;21.876;2023-05-24T03:29:20;12.0;;;8.0;;
22675;SDS011;12521;43.310;21.876;2023-05-24T03:33:56;12.0;;;8.0;;
22675;SDS011;12521;43.310;21.876;2023-05-24T03:38:32;12.0;;;8.0;;
22675;SDS011;12521;43.310;21.876;2023-05-24T03:43:08;12.0;;;8.0;;
22675;SDS011;12521;43.310;21.876;2023-05-24T03:47:44;12.0;;;8.0;;
22675;SDS011;12521;43.310;21.876;2023-05-24T03:52:20;11.0;;;8.0;;
22675;SDS011;12521;43.310;21.876;2023-05-24T03:56:56;11.0;;;8.0;;
22675;SDS011;12521;43.310;21.876;2023-05-24T04:01:33;10.0;;;8.0;;
22675;SDS011;12521;43.310;21.876;2023-05-24T04:06:09;10.0;;;8.0;;
22675;SDS011;12521;43.310;21.876;2023-05-24T04:10:45;11.0;;;8.0;;
22675;SDS011;12521;43.310;21.876;2023-05-24T04:15:21;11.0;;;8.0;;
22675;SDS011;12521;43.310;21.876;2023-05-24T04:19:57;12.0;;;8.0;;
22675;SDS011;12521;43.310;21.876;2023-05-24T04:24:33;12.0;;;8.0;;
22675;SDS011;12521;43.310;21.876;2023-05-24T04:29:09;12.0;;;8.0;;
22675;SDS011;12521;43.310;21.876;2023-05-24T04:33:45;12.0;;;8.0;;
22675;SDS011;12521;43.310;21.876;2023-05-24T04:38:21;12.0;;;8.0;;
22675;SDS011;12521;43.310;21.876;2023-05-24T04:42:57;11.0;;;9.0;;
22675;SDS011;12521;43.310;21.876;2023-05-24T04:47:33;11.0;;;9.0;;
22675;SDS011;12521;43.310;21.876;2023-05-24T04:52:09;10.0;;;8.0;;
22675;SDS011;12521;43.310;21.876;2023-05-24T04:56:45;10.0;;;8.0;;
22675;SDS011;12521;43.310;21.876;2023-05-24T05:01:22;8.0;;;7.0;;
22675;SDS011;12521;43.310;21.876;2023-05-24T05:05:58;8.0;;;7.0;;
22675;SDS011;12521;43.310;21.876;2023-05-24T05:10:35;8.0;;;8.0;;
22675;SDS011;12521;43.310;21.876;2023-05-24T05:15:11;8.0;;;8.0;;
22675;SDS011;12521;43.310;21.876;2023-05-24T05:19:47;9.0;;;8.0;;
22675;SDS011;12521;43.310;21.876;2023-05-24T05:24:24;9.0;;;8.0;;
22675;SDS011;12521;43.310;21.876;2023-05-24T05:29:00;9.0;;;8.0;;
22675;SDS011;12521;43.310;21.876;2023-05-24T05:33:37;10.0;;;8.0;;
22675;SDS011;12521;43.310;21.876;2023-05-24T05:38:13;10.0;;;8.0;;
22675;SDS011;12521;43.310;21.876;2023-05-24T05:42:50;11.0;;;9.0;;
22675;SDS011;12521;43.310;21.876;2023-05-24T05:47:26;11.0;;;9.0;;
22675;SDS011;12521;43.310;21.876;2023-05-24T05:52:03;12.0;;;9.0;;
22675;SDS011;12521;43.310;21.876;2023-05-24T05:56:42;12.0;;;9.0;;
22675;SDS011;12521;43.310;21.876;2023-05-24T06:01:19;12.0;;;9.0;;
22675;SDS011;12521;43.310;21.876;2023-05-24T06:05:55;12.0;;;9.0;;
22675;SDS011;12521;43.310;21.876;2023-05-24T06:10:31;11.0;;;8.0;;
22675;SDS011;12521;43.310;21.876;2023-05-24T06:15:08;11.0;;;8.0;;
22675;SDS011;12521;43.310;21.876;2023-05-24T06:19:46;10.0;;;8.0;;
22675;SDS011;12521;43.310;21.876;2023-05-24T06:24:22;10.0;;;8.0;;
22675;SDS011;12521;43.310;21.876;2023-05-24T06:28:58;10.0;;;8.0;;
22675;SDS011;12521;43.310;21.876;2023-05-24T06:33:34;10.0;;;9.0;;
22675;SDS011;12521;43.310;21.876;2023-05-24T06:38:11;10.0;;;9.0;;
22675;SDS011;12521;43.310;21.876;2023-05-24T06:42:47;11.0;;;10.0;;
22675;SDS011;12521;43.310;21.876;2023-05-24T06:47:23;11.0;;;10.0;;
22675;SDS011;12521;43.310;21.876;2023-05-24T06:52:00;10.0;;;10.0;;
22675;SDS011;12521;43.310;21.876;2023-05-24T06:56:36;10.0;;;10.0;;
22675;SDS011;12521;43.310;21.876;2023-05-24T07:01:12;10.0;;;9.0;;
22675;SDS011;12521;43.310;21.876;2023-05-24T07:05:48;10.0;;;9.0;;
22675;SDS011;12521;43.310;21.876;2023-05-24T07:10:24;10.0;;;9.0;;
22675;SDS011;12521;43.310;21.876;2023-05-24T07:15:01;10.0;;;9.0;;
22675;SDS011;12521;43.310;21.876;2023-05-24T07:19:37;10.0;;;9.0;;
22675;SDS011;12521;43.310;21.876;2023-05-24T07:24:13;11.0;;;9.0;;
22675;SDS011;12521;43.310;21.876;2023-05-24T07:28:50;11.0;;;9.0;;
22675;SDS011;12521;43.310;21.876;2023-05-24T07:33:26;10.0;;;8.0;;
22675;SDS011;12521;43.310;21.876;2023-05-24T07:38:02;10.0;;;8.0;;
22675;SDS011;12521;43.310;21.876;2023-05-24T07:42:40;9.0;;;7.0;;
22675;SDS011;12521;43.310;21.876;2023-05-24T07:47:16;9.0;;;7.0;;
22675;SDS011;12521;43.310;21.876;2023-05-24T07:51:53;9.0;;;7.0;;
22675;SDS011;12521;43.310;21.876;2023-05-24T07:56:30;9.0;;;7.0;;
22675;SDS011;12521;43.310;21.876;2023-05-24T08:01:06;9.0;;;7.0;;
22675;SDS011;12521;43.310;21.876;2023-05-24T08:05:43;9.0;;;7.0;;
22675;SDS011;12521;43.310;21.876;2023-05-24T08:10:19;11.0;;;8.0;;
22675;SDS011;12521;43.310;21.876;2023-05-24T08:14:56;11.0;;;8.0;;
22675;SDS011;12521;43.310;21.876;2023-05-24T08:19:33;11.0;;;8.0;;
22675;SDS011;12521;43.310;21.876;2023-05-24T08:24:09;13.0;;;9.0;;
22675;SDS011;12521;43.310;21.876;2023-05-24T08:28:46;13.0;;;9.0;;
22675;SDS011;12521;43.310;21.876;2023-05-24T08:33:22;11.0;;;8.0;;
22675;SDS011;12521;43.310;21.876;2023-05-24T08:37:58;11.0;;;8.0;;
22675;SDS011;12521;43.310;21.876;2023-05-24T08:42:37;9.0;;;8.0;;
22675;SDS011;12521;43.310;21.876;2023-05-24T08:47:14;9.0;;;8.0;;
22675;SDS011;12521;43.310;21.876;2023-05-24T08:51:53;10.0;;;8.0;;
22675;SDS011;12521;43.310;21.876;2023-05-24T08:56:30;10.0;;;8.0;;
22675;SDS011;12521;43.310;21.876;2023-05-24T09:01:08;10.0;;;7.0;;
22675;SDS011;12521;43.310;21.876;2023-05-24T09:05:48;10.0;;;7.0;;
22675;SDS011;12521;43.310;21.876;2023-05-24T09:10:27;10.0;;;8.0;;
22675;SDS011;12521;43.310;21.876;2023-05-24T09:15:09;10.0;;;8.0;;
22675;SDS011;12521;43.310;21.876;2023-05-24T09:19:49;10.0;;;8.0;;
22675;SDS011;12521;43.310;21.876;2023-05-24T09:24:27;10.0;;;8.0;;
22675;SDS011;12521;43.310;21.876;2023-05-24T09:29:06;10.0;;;8.0;;
22675;SDS011;12521;43.310;21.876;2023-05-24T09:33:47;11.0;;;8.0;;
22675;SDS011;12521;43.310;21.876;2023-05-24T09:38:24;11.0;;;8.0;;
22675;SDS011;12521;43.310;21.876;2023-05-24T09:43:04;12.0;;;7.0;;
22675;SDS011;12521;43.310;21.876;2023-05-24T09:47:44;12.0;;;7.0;;
22675;SDS011;12521;43.310;21.876;2023-05-24T09:52:21;10.0;;;6.0;;
22675;SDS011;12521;43.310;21.876;2023-05-24T09:56:59;10.0;;;6.0;;
22675;SDS011;12521;43.310;21.876;2023-05-24T10:01:37;9.0;;;6.0;;
22675;SDS011;12521;43.310;21.876;2023-05-24T10:06:13;9.0;;;6.0;;
22675;SDS011;12521;43.310;21.876;2023-05-24T10:10:51;9.0;;;6.0;;
22675;SDS011;12521;43.310;21.876;2023-05-24T10:15:29;9.0;;;6.0;;
22675;SDS011;12521;43.310;21.876;2023-05-24T10:20:06;9.0;;;7.0;;
22675;SDS011;12521;43.310;21.876;2023-05-24T10:24:49;9.0;;;7.0;;
22675;SDS011;12521;43.310;21.876;2023-05-24T10:29:46;9.0;;;7.0;;
22675;SDS011;12521;43.310;21.876;2023-05-24T10:34:52;8.0;;;6.0;;
22675;SDS011;12521;43.310;21.876;2023-05-24T10:39:32;8.0;;;6.0;;
22675;SDS011;12521;43.310;21.876;2023-05-24T10:44:10;7.0;;;6.0;;
22675;SDS011;12521;43.310;21.876;2023-05-24T10:48:59;7.0;;;6.0;;
22675;SDS011;12521;43.310;21.876;2023-05-24T10:53:38;7.0;;;6.0;;
22675;SDS011;12521;43.310;21.876;2023-05-24T10:58:15;7.0;;;6.0;;
22675;SDS011;12521;43.310;21.876;2023-05-24T11:02:59;7.0;;;6.0;;
22675;SDS011;12521;43.310;21.876;2023-05-24T11:07:43;7.0;;;6.0;;
22675;SDS011;12521;43.310;21.876;2023-05-24T11:12:20;9.0;;;6.0;;
22675;SDS011;12521;43.310;21.876;2023-05-24T11:16:58;9.0;;;6.0;;
22675;SDS011;12521;43.310;21.876;2023-05-24T11:21:34;11.0;;;7.0;;
22675;SDS011;12521;43.310;21.876;2023-05-24T11:26:11;11.0;;;7.0;;
22675;SDS011;12521;43.310;21.876;2023-05-24T11:30:49;10.0;;;7.0;;
22675;SDS011;12521;43.310;21.876;2023-05-24T11:35:26;10.0;;;7.0;;
22675;SDS011;12521;43.310;21.876;2023-05-24T11:40:03;9.0;;;7.0;;
22675;SDS011;12521;43.310;21.876;2023-05-24T11:44:47;9.0;;;7.0;;
22675;SDS011;12521;43.310;21.876;2023-05-24T11:49:28;9.0;;;7.0;;
22675;SDS011;12521;43.310;21.876;2023-05-24T11:54:05;8.0;;;8.0;;
22675;SDS011;12521;43.310;21.876;2023-05-24T11:58:47;8.0;;;8.0;;
22675;SDS011;12521;43.310;21.876;2023-05-24T12:03:34;8.0;;;8.0;;
22675;SDS011;12521;43.310;21.876;2023-05-24T12:08:11;8.0;;;8.0;;
22675;SDS011;12521;43.310;21.876;2023-05-24T12:12:48;8.0;;;8.0;;
22675;SDS011;12521;43.310;21.876;2023-05-24T12:17:25;8.0;;;8.0;;
22675;SDS011;12521;43.310;21.876;2023-05-24T12:22:04;8.0;;;7.0;;
22675;SDS011;12521;43.310;21.876;2023-05-24T12:26:42;8.0;;;7.0;;
22675;SDS011;12521;43.310;21.876;2023-05-24T12:31:23;9.0;;;7.0;;
22675;SDS011;12521;43.310;21.876;2023-05-24T12:36:01;9.0;;;7.0;;
22675;SDS011;12521;43.310;21.876;2023-05-24T12:40:41;10.0;;;7.0;;
22675;SDS011;12521;43.310;21.876;2023-05-24T12:45:18;10.0;;;7.0;;
22675;SDS011;12521;43.310;21.876;2023-05-24T12:49:54;10.0;;;7.0;;
22675;SDS011;12521;43.310;21.876;2023-05-24T12:54:30;10.0;;;7.0;;
22675;SDS011;12521;43.310;21.876;2023-05-24T12:59:07;10.0;;;7.0;;
22675;SDS011;12521;43.310;21.876;2023-05-24T13:03:43;11.0;;;7.0;;
22675;SDS011;12521;43.310;21.876;2023-05-24T13:08:19;11.0;;;7.0;;
22675;SDS011;12521;43.310;21.876;2023-05-24T13:12:56;12.0;;;8.0;;
22675;SDS011;12521;43.310;21.876;2023-05-24T13:17:32;12.0;;;8.0;;
22675;SDS011;12521;43.310;21.876;2023-05-24T13:22:09;12.0;;;8.0;;
22675;SDS011;12521;43.310;21.876;2023-05-24T13:26:45;12.0;;;8.0;;
22675;SDS011;12521;43.310;21.876;2023-05-24T13:31:22;12.0;;;8.0;;
22675;SDS011;12521;43.310;21.876;2023-05-24T13:35:59;12.0;;;8.0;;
22675;SDS011;12521;43.310;21.876;2023-05-24T13:40:35;12.0;;;7.0;;
22675;SDS011;12521;43.310;21.876;2023-05-24T13:45:14;12.0;;;7.0;;
22675;SDS011;12521;43.310;21.876;2023-05-24T13:49:50;12.0;;;7.0;;
22675;SDS011;12521;43.310;21.876;2023-05-24T13:54:27;10.0;;;6.0;;
22675;SDS011;12521;43.310;21.876;2023-05-24T13:59:03;10.0;;;6.0;;
22675;SDS011;12521;43.310;21.876;2023-05-24T14:03:41;8.0;;;6.0;;
22675;SDS011;12521;43.310;21.876;2023-05-24T14:08:17;8.0;;;6.0;;
22675;SDS011;12521;43.310;21.876;2023-05-24T14:12:53;8.0;;;6.0;;
22675;SDS011;12521;43.310;21.876;2023-05-24T14:17:30;8.0;;;6.0;;
22675;SDS011;12521;43.310;21.876;2023-05-24T14:22:07;8.0;;;7.0;;
22675;SDS011;12521;43.310;21.876;2023-05-24T14:26:43;8.0;;;7.0;;
22675;SDS011;12521;43.310;21.876;2023-05-24T14:31:19;9.0;;;8.0;;
22675;SDS011;12521;43.310;21.876;2023-05-24T14:35:56;9.0;;;8.0;;
22675;SDS011;12521;43.310;21.876;2023-05-24T14:40:32;10.0;;;8.0;;
22675;SDS011;12521;43.310;21.876;2023-05-24T14:45:11;10.0;;;8.0;;
22675;SDS011;12521;43.310;21.876;2023-05-24T14:49:47;10.0;;;8.0;;
22675;SDS011;12521;43.310;21.876;2023-05-24T14:54:23;10.0;;;8.0;;
22675;SDS011;12521;43.310;21.876;2023-05-24T14:58:59;10.0;;;8.0;;
22675;SDS011;12521;43.310;21.876;2023-05-24T15:03:36;10.0;;;9.0;;
22675;SDS011;12521;43.310;21.876;2023-05-24T15:08:12;10.0;;;9.0;;
22675;SDS011;12521;43.310;21.876;2023-05-24T15:12:48;10.0;;;8.0;;
22675;SDS011;12521;43.310;21.876;2023-05-24T15:17:24;10.0;;;8.0;;
22675;SDS011;12521;43.310;21.876;2023-05-24T15:22:01;10.0;;;8.0;;
22675;SDS011;12521;43.310;21.876;2023-05-24T15:26:37;10.0;;;8.0;;
22675;SDS011;12521;43.310;21.876;2023-05-24T15:31:13;10.0;;;8.0;;
22675;SDS011;12521;43.310;21.876;2023-05-24T15:35:49;10.0;;;8.0;;
22675;SDS011;12521;43.310;21.876;2023-05-24T15:40:26;10.0;;;7.0;;
22675;SDS011;12521;43.310;21.876;2023-05-24T15:45:02;10.0;;;7.0;;
22675;SDS011;12521;43.310;21.876;2023-05-24T15:49:45;10.0;;;7.0;;
22675;SDS011;12521;43.310;21.876;2023-05-24T15:54:22;10.0;;;8.0;;
22675;SDS011;12521;43.310;21.876;2023-05-24T15:58:58;10.0;;;8.0;;
22675;SDS011;12521;43.310;21.876;2023-05-24T16:03:35;9.0;;;8.0;;
22675;SDS011;12521;43.310;21.876;2023-05-24T16:08:11;9.0;;;8.0;;
22675;SDS011;12521;43.310;21.876;2023-05-24T16:12:48;10.0;;;8.0;;
22675;SDS011;12521;43.310;21.876;2023-05-24T16:17:25;10.0;;;8.0;;
22675;SDS011;12521;43.310;21.876;2023-05-24T16:22:02;12.0;;;9.0;;
22675;SDS011;12521;43.310;21.876;2023-05-24T16:26:41;12.0;;;9.0;;
22675;SDS011;12521;43.310;21.876;2023-05-24T16:31:18;11.0;;;9.0;;
22675;SDS011;12521;43.310;21.876;2023-05-24T16:35:55;11.0;;;9.0;;
22675;SDS011;12521;43.310;21.876;2023-05-24T16:40:32;10.0;;;9.0;;
22675;SDS011;12521;43.310;21.876;2023-05-24T16:45:08;10.0;;;9.0;;
22675;SDS011;12521;43.310;21.876;2023-05-24T16:49:45;10.0;;;9.0;;
22675;SDS011;12521;43.310;21.876;2023-05-24T16:54:21;10.0;;;9.0;;
22675;SDS011;12521;43.310;21.876;2023-05-24T16:58:58;10.0;;;9.0;;
22675;SDS011;12521;43.310;21.876;2023-05-24T17:03:34;10.0;;;9.0;;
22675;SDS011;12521;43.310;21.876;2023-05-24T17:08:10;10.0;;;9.0;;
22675;SDS011;12521;43.310;21.876;2023-05-24T17:12:46;10.0;;;10.0;;
22675;SDS011;12521;43.310;21.876;2023-05-24T17:17:22;10.0;;;10.0;;
22675;SDS011;12521;43.310;21.876;2023-05-24T17:21:59;11.0;;;10.0;;
22675;SDS011;12521;43.310;21.876;2023-05-24T17:26:35;11.0;;;10.0;;
22675;SDS011;12521;43.310;21.876;2023-05-24T17:31:12;12.0;;;11.0;;
22675;SDS011;12521;43.310;21.876;2023-05-24T17:35:50;12.0;;;11.0;;
22675;SDS011;12521;43.310;21.876;2023-05-24T17:40:28;12.0;;;12.0;;
22675;SDS011;12521;43.310;21.876;2023-05-24T17:45:05;12.0;;;12.0;;
22675;SDS011;12521;43.310;21.876;2023-05-24T17:49:45;12.0;;;12.0;;
22675;SDS011;12521;43.310;21.876;2023-05-24T17:54:22;14.0;;;12.0;;
22675;SDS011;12521;43.310;21.876;2023-05-24T17:58:59;14.0;;;12.0;;
22675;SDS011;12521;43.310;21.876;2023-05-24T18:03:36;15.0;;;11.0;;
22675;SDS011;12521;43.310;21.876;2023-05-24T18:08:15;15.0;;;11.0;;
22675;SDS011;12521;43.310;21.876;2023-05-24T18:12:52;14.0;;;12.0;;
22675;SDS011;12521;43.310;21.876;2023-05-24T18:17:29;14.0;;;12.0;;
22675;SDS011;12521;43.310;21.876;2023-05-24T18:22:05;13.0;;;12.0;;
22675;SDS011;12521;43.310;21.876;2023-05-24T18:26:42;13.0;;;12.0;;
22675;SDS011;12521;43.310;21.876;2023-05-24T18:31:19;13.0;;;12.0;;
22675;SDS011;12521;43.310;21.876;2023-05-24T18:35:56;13.0;;;12.0;;
22675;SDS011;12521;43.310;21.876;2023-05-24T18:40:32;13.0;;;12.0;;
22675;SDS011;12521;43.310;21.876;2023-05-24T18:45:09;13.0;;;12.0;;
22675;SDS011;12521;43.310;21.876;2023-05-24T18:49:48;13.0;;;12.0;;
22675;SDS011;12521;43.310;21.876;2023-05-24T18:54:26;12.0;;;12.0;;
22675;SDS011;12521;43.310;21.876;2023-05-24T18:59:04;12.0;;;12.0;;
22675;SDS011;12521;43.310;21.876;2023-05-24T19:03:42;12.0;;;12.0;;
22675;SDS011;12521;43.310;21.876;2023-05-24T19:08:19;12.0;;;12.0;;
22675;SDS011;12521;43.310;21.876;2023-05-24T19:12:56;14.0;;;13.0;;
22675;SDS011;12521;43.310;21.876;2023-05-24T19:17:32;14.0;;;13.0;;
22675;SDS011;12521;43.310;21.876;2023-05-24T19:22:10;15.0;;;14.0;;
22675;SDS011;12521;43.310;21.876;2023-05-24T19:26:46;15.0;;;14.0;;
22675;SDS011;12521;43.310;21.876;2023-05-24T19:31:23;18.0;;;16.0;;
22675;SDS011;12521;43.310;21.876;2023-05-24T19:36:00;18.0;;;16.0;;
22675;SDS011;12521;43.310;21.876;2023-05-24T19:40:36;22.0;;;19.0;;
22675;SDS011;12521;43.310;21.876;2023-05-24T19:45:12;22.0;;;19.0;;
22675;SDS011;12521;43.310;21.876;2023-05-24T19:49:48;22.0;;;19.0;;
22675;SDS011;12521;43.310;21.876;2023-05-24T19:54:25;23.0;;;20.0;;
22675;SDS011;12521;43.310;21.876;2023-05-24T19:59:01;23.0;;;20.0;;
22675;SDS011;12521;43.310;21.876;2023-05-24T20:03:37;24.0;;;21.0;;
22675;SDS011;12521;43.310;21.876;2023-05-24T20:08:14;24.0;;;21.0;;
22675;SDS011;12521;43.310;21.876;2023-05-24T20:12:50;25.0;;;22.0;;
22675;SDS011;12521;43.310;21.876;2023-05-24T20:17:26;25.0;;;22.0;;
22675;SDS011;12521;43.310;21.876;2023-05-24T20:22:03;26.0;;;22.0;;
22675;SDS011;12521;43.310;21.876;2023-05-24T20:26:39;26.0;;;22.0;;
22675;SDS011;12521;43.310;21.876;2023-05-24T20:31:16;23.0;;;20.0;;
22675;SDS011;12521;43.310;21.876;2023-05-24T20:35:53;23.0;;;20.0;;
22675;SDS011;12521;43.310;21.876;2023-05-24T20:40:30;20.0;;;19.0;;
22675;SDS011;12521;43.310;21.876;2023-05-24T20:45:07;20.0;;;19.0;;
22675;SDS011;12521;43.310;21.876;2023-05-24T20:49:46;20.0;;;19.0;;
22675;SDS011;12521;43.310;21.876;2023-05-24T20:54:22;20.0;;;17.0;;
22675;SDS011;12521;43.310;21.876;2023-05-24T20:58:59;20.0;;;17.0;;
22675;SDS011;12521;43.310;21.876;2023-05-24T21:03:35;19.0;;;15.0;;
22675;SDS011;12521;43.310;21.876;2023-05-24T21:08:12;19.0;;;15.0;;
22675;SDS011;12521;43.310;21.876;2023-05-24T21:12:49;17.0;;;14.0;;
22675;SDS011;12521;43.310;21.876;2023-05-24T21:17:25;17.0;;;14.0;;
22675;SDS011;12521;43.310;21.876;2023-05-24T21:22:02;15.0;;;14.0;;
22675;SDS011;12521;43.310;21.876;2023-05-24T21:26:40;15.0;;;14.0;;
22675;SDS011;12521;43.310;21.876;2023-05-24T21:31:17;15.0;;;14.0;;
22675;SDS011;12521;43.310;21.876;2023-05-24T21:35:55;15.0;;;14.0;;
22675;SDS011;12521;43.310;21.876;2023-05-24T21:40:32;15.0;;;14.0;;
22675;SDS011;12521;43.310;21.876;2023-05-24T21:45:09;15.0;;;14.0;;
22675;SDS011;12521;43.310;21.876;2023-05-24T21:49:46;15.0;;;14.0;;
22675;SDS011;12521;43.310;21.876;2023-05-24T21:54:23;14.0;;;14.0;;
22675;SDS011;12521;43.310;21.876;2023-05-24T21:59:00;14.0;;;14.0;;
22675;SDS011;12521;43.310;21.876;2023-05-24T22:03:37;14.0;;;13.0;;
22675;SDS011;12521;43.310;21.876;2023-05-24T22:08:13;14.0;;;13.0;;
22675;SDS011;12521;43.310;21.876;2023-05-24T22:12:50;14.0;;;13.0;;
22675;SDS011;12521;43.310;21.876;2023-05-24T22:17:26;14.0;;;13.0;;
22675;SDS011;12521;43.310;21.876;2023-05-24T22:22:03;15.0;;;13.0;;
22675;SDS011;12521;43.310;21.876;2023-05-24T22:26:39;15.0;;;13.0;;
22675;SDS011;12521;43.310;21.876;2023-05-24T22:31:15;14.0;;;12.0;;
22675;SDS011;12521;43.310;21.876;2023-05-24T22:35:53;14.0;;;12.0;;
22675;SDS011;12521;43.310;21.876;2023-05-24T22:40:29;14.0;;;12.0;;
22675;SDS011;12521;43.310;21.876;2023-05-24T22:45:06;14.0;;;12.0;;
22675;SDS011;12521;43.310;21.876;2023-05-24T22:49:45;14.0;;;12.0;;
22675;SDS011;12521;43.310;21.876;2023-05-24T22:54:22;14.0;;;12.0;;
22675;SDS011;12521;43.310;21.876;2023-05-24T22:58:58;14.0;;;12.0;;
22675;SDS011;12521;43.310;21.876;2023-05-24T23:03:35;14.0;;;13.0;;
22675;SDS011;12521;43.310;21.876;2023-05-24T23:08:11;14.0;;;13.0;;
22675;SDS011;12521;43.310;21.876;2023-05-24T23:12:48;13.0;;;12.0;;
22675;SDS011;12521;43.310;21.876;2023-05-24T23:17:25;13.0;;;12.0;;
22675;SDS011;12521;43.310;21.876;2023-05-24T23:22:01;12.0;;;11.0;;
22675;SDS011;12521;43.310;21.876;2023-05-24T23:26:38;12.0;;;11.0;;
22675;SDS011;12521;43.310;21.876;2023-05-24T23:31:15;12.0;;;11.0;;
22675;SDS011;12521;43.310;21.876;2023-05-24T23:35:52;12.0;;;11.0;;
22675;SDS011;12521;43.310;21.876;2023-05-24T23:40:28;12.0;;;11.0;;
22675;SDS011;12521;43.310;21.876;2023-05-24T23:45:05;12.0;;;11.0;;
22675;SDS011;12521;43.310;21.876;2023-05-24T23:49:44;12.0;;;11.0;;
22675;SDS011;12521;43.310;21.876;2023-05-24T23:54:21;12.0;;;11.0;;
22675;SDS011;12521;43.310;21.876;2023-05-24T23:58:57;12.0;;;11.0;;
